Time;durP1;ratioP1;P1;durP2;ratioP2;P2;SDS_P1;SDS_P2;PMS_P1;PMS_P2;Temp;Humidity;BMP_temperature;BMP_pressure;BME280_temperature;BME280_humidity;BME280_pressure;Samples;Min_cycle;Max_cycle;Signal;HPM_P1;HPM_P2
2023/11/13 00:02:14;;;;;;;16.50;10.43;;;;;;;;;;5022666;28;20512;-72
2023/11/13 00:04:40;;;;;;;16.57;9.73;;;;;;;;;;5018256;28;20486;-72
2023/11/13 00:07:06;;;;;;;21.13;10.37;;;;;;;;;;5015153;28;20032;-74
2023/11/13 00:09:33;;;;;;;24.67;11.37;;;;;;;;;;5014759;28;20116;-74
2023/11/13 00:11:59;;;;;;;20.43;10.70;;;;;;;;;;5014257;28;20037;-71
2023/11/13 00:14:25;;;;;;;19.97;9.27;;;;;;;;;;5015320;28;20026;-72
2023/11/13 00:16:50;;;;;;;22.30;10.57;;;;;;;;;;5015194;28;20084;-74
2023/11/13 00:19:16;;;;;;;14.27;8.70;;;;;;;;;;5013999;28;20080;-74
2023/11/13 00:21:42;;;;;;;20.10;9.57;;;;;;;;;;5014080;28;20037;-75
2023/11/13 00:24:08;;;;;;;19.27;10.07;;;;;;;;;;5013707;28;20048;-74
2023/11/13 00:26:34;;;;;;;16.93;8.97;;;;;;;;;;5015739;28;20484;-73
2023/11/13 00:29:01;;;;;;;15.93;9.30;;;;;;;;;;5015008;28;20034;-74
2023/11/13 00:31:28;;;;;;;16.63;9.20;;;;;;;;;;5014241;28;20034;-73
2023/11/13 00:33:53;;;;;;;18.97;8.63;;;;;;;;;;5014588;28;20760;-76
2023/11/13 00:36:19;;;;;;;14.90;8.83;;;;;;;;;;5013454;28;20160;-74
2023/11/13 00:38:45;;;;;;;16.90;8.77;;;;;;;;;;5014686;28;20025;-75
2023/11/13 00:41:12;;;;;;;15.57;8.47;;;;;;;;;;5014814;28;20041;-77
2023/11/13 00:43:40;;;;;;;14.93;9.00;;;;;;;;;;5012603;28;20156;-77
2023/11/13 00:46:09;;;;;;;15.53;8.97;;;;;;;;;;5012902;28;20115;-76
2023/11/13 00:48:37;;;;;;;17.17;9.47;;;;;;;;;;5012191;28;20524;-75
2023/11/13 00:51:04;;;;;;;20.33;9.70;;;;;;;;;;5012703;28;20459;-74
2023/11/13 00:53:36;;;;;;;15.63;8.57;;;;;;;;;;5011959;28;20038;-75
2023/11/13 00:56:06;;;;;;;15.07;9.33;;;;;;;;;;5012245;28;20577;-74
2023/11/13 00:58:35;;;;;;;20.40;8.73;;;;;;;;;;5012857;28;20084;-74
2023/11/13 01:01:02;;;;;;;19.20;9.17;;;;;;;;;;5020692;28;20038;-74
2023/11/13 01:03:28;;;;;;;17.73;9.70;;;;;;;;;;4992195;28;20053;-76
2023/11/13 01:05:55;;;;;;;18.43;9.83;;;;;;;;;;4992664;28;20096;-75
2023/11/13 01:08:20;;;;;;;23.23;10.23;;;;;;;;;;4993899;28;20031;-76
2023/11/13 01:10:46;;;;;;;16.73;9.60;;;;;;;;;;4992551;28;20505;-77
2023/11/13 01:13:12;;;;;;;22.07;10.03;;;;;;;;;;4994206;28;20041;-75
2023/11/13 01:15:38;;;;;;;19.87;9.63;;;;;;;;;;4991971;28;20041;-76
2023/11/13 01:18:03;;;;;;;20.63;11.73;;;;;;;;;;4992438;28;20034;-73
2023/11/13 01:20:29;;;;;;;16.13;9.47;;;;;;;;;;4993468;28;20033;-74
2023/11/13 01:22:56;;;;;;;16.47;9.80;;;;;;;;;;4992082;28;20490;-76
2023/11/13 01:25:22;;;;;;;18.83;9.63;;;;;;;;;;4993408;28;20077;-75
2023/11/13 01:27:47;;;;;;;19.03;9.20;;;;;;;;;;4991818;28;20062;-76
2023/11/13 01:30:14;;;;;;;18.60;10.03;;;;;;;;;;4992243;28;20022;-78
2023/11/13 01:32:39;;;;;;;21.10;10.37;;;;;;;;;;4991677;28;20038;-75
2023/11/13 01:35:05;;;;;;;18.23;10.93;;;;;;;;;;4993111;28;20041;-74
2023/11/13 01:37:31;;;;;;;23.17;10.43;;;;;;;;;;4991915;28;20048;-74
2023/11/13 01:39:57;;;;;;;18.63;9.67;;;;;;;;;;4992087;28;20774;-77
2023/11/13 01:42:24;;;;;;;22.60;11.07;;;;;;;;;;4993615;28;20030;-75
2023/11/13 01:44:51;;;;;;;24.27;11.60;;;;;;;;;;4993694;28;20085;-74
2023/11/13 01:47:17;;;;;;;22.40;11.37;;;;;;;;;;4992987;28;20087;-76
2023/11/13 01:49:43;;;;;;;21.80;11.43;;;;;;;;;;4991611;28;20048;-73
2023/11/13 01:52:11;;;;;;;24.13;11.03;;;;;;;;;;5008311;28;20581;-77
2023/11/13 01:54:37;;;;;;;17.00;9.33;;;;;;;;;;4991234;28;20041;-73
2023/11/13 01:57:07;;;;;;;19.10;10.23;;;;;;;;;;4991704;28;20077;-75
2023/11/13 01:59:37;;;;;;;21.47;9.70;;;;;;;;;;5007349;28;20054;-75
2023/11/13 02:02:03;;;;;;;19.30;9.73;;;;;;;;;;5007979;28;20030;-75
2023/11/13 02:04:29;;;;;;;15.97;9.87;;;;;;;;;;5026975;28;20103;-76
2023/11/13 02:06:55;;;;;;;18.40;10.13;;;;;;;;;;5012391;28;20116;-75
2023/11/13 02:09:21;;;;;;;18.77;10.47;;;;;;;;;;5012935;28;20462;-77
2023/11/13 02:11:47;;;;;;;21.23;10.37;;;;;;;;;;5011288;28;20029;-76
2023/11/13 02:14:14;;;;;;;23.00;11.57;;;;;;;;;;5011698;28;20033;-76
2023/11/13 02:16:40;;;;;;;17.73;10.40;;;;;;;;;;5011899;28;20148;-76
2023/11/13 02:19:06;;;;;;;18.47;10.83;;;;;;;;;;5011979;28;20022;-77
2023/11/13 02:21:34;;;;;;;19.57;11.40;;;;;;;;;;5012398;28;20139;-74
2023/11/13 02:24:01;;;;;;;24.00;11.63;;;;;;;;;;5011755;28;20109;-77
2023/11/13 02:26:29;;;;;;;19.90;10.23;;;;;;;;;;5010617;28;20602;-76
2023/11/13 02:28:55;;;;;;;22.77;10.00;;;;;;;;;;5012515;28;20026;-76
2023/11/13 02:31:20;;;;;;;19.57;9.97;;;;;;;;;;5012902;28;20041;-74
2023/11/13 02:33:46;;;;;;;19.53;10.47;;;;;;;;;;5011559;28;20030;-75
2023/11/13 02:36:13;;;;;;;18.90;10.73;;;;;;;;;;5011772;28;20038;-77
2023/11/13 02:38:38;;;;;;;16.17;9.73;;;;;;;;;;5011301;28;20798;-75
2023/11/13 02:41:04;;;;;;;21.17;9.83;;;;;;;;;;5012520;28;20102;-73
2023/11/13 02:43:33;;;;;;;18.97;10.40;;;;;;;;;;5012893;28;20493;-76
2023/11/13 02:45:58;;;;;;;18.23;10.27;;;;;;;;;;5011593;28;20022;-74
2023/11/13 02:48:24;;;;;;;23.63;10.50;;;;;;;;;;5010986;28;20048;-76
2023/11/13 02:50:50;;;;;;;17.30;9.97;;;;;;;;;;5010745;28;20037;-75
2023/11/13 02:53:15;;;;;;;20.03;10.47;;;;;;;;;;5012324;28;20425;-75
2023/11/13 02:55:41;;;;;;;17.30;10.23;;;;;;;;;;5011859;28;20036;-73
2023/11/13 02:58:07;;;;;;;21.27;10.73;;;;;;;;;;5010552;28;20023;-75
2023/11/13 03:00:36;;;;;;;20.87;10.00;;;;;;;;;;5006695;28;20026;-77
2023/11/13 03:03:02;;;;;;;18.87;10.07;;;;;;;;;;4992581;28;20406;-74
2023/11/13 03:05:29;;;;;;;21.20;10.10;;;;;;;;;;4991120;28;20046;-71
2023/11/13 03:07:56;;;;;;;23.40;10.27;;;;;;;;;;4993013;28;20203;-73
2023/11/13 03:10:22;;;;;;;20.00;10.00;;;;;;;;;;4990727;28;20042;-74
2023/11/13 03:12:48;;;;;;;20.77;10.33;;;;;;;;;;4991107;28;20033;-76
2023/11/13 03:15:15;;;;;;;19.13;9.97;;;;;;;;;;4990887;28;20044;-75
2023/11/13 03:17:40;;;;;;;17.97;9.30;;;;;;;;;;5006738;28;20030;-74
2023/11/13 03:20:07;;;;;;;20.57;9.20;;;;;;;;;;4990829;28;20080;-75
2023/11/13 03:22:33;;;;;;;18.80;9.80;;;;;;;;;;4991022;28;20364;-75
2023/11/13 03:24:59;;;;;;;22.17;9.20;;;;;;;;;;4994833;28;20026;-74
2023/11/13 03:27:26;;;;;;;16.30;9.33;;;;;;;;;;4995778;28;20138;-73
2023/11/13 03:29:51;;;;;;;17.47;9.83;;;;;;;;;;4993899;28;20057;-74
2023/11/13 03:32:17;;;;;;;20.97;10.00;;;;;;;;;;4993917;28;20029;-76
2023/11/13 03:34:44;;;;;;;15.87;9.07;;;;;;;;;;5011026;28;20117;-74
2023/11/13 03:37:10;;;;;;;13.73;8.83;;;;;;;;;;5010741;28;20586;-74
2023/11/13 03:39:36;;;;;;;18.67;9.87;;;;;;;;;;4995323;28;20101;-76
2023/11/13 03:42:02;;;;;;;19.90;9.07;;;;;;;;;;4995663;28;20034;-76
2023/11/13 03:44:28;;;;;;;14.83;9.00;;;;;;;;;;4996397;28;20033;-74
2023/11/13 03:46:54;;;;;;;16.40;9.63;;;;;;;;;;4995699;28;20030;-77
2023/11/13 03:49:19;;;;;;;20.33;10.83;;;;;;;;;;4995963;28;20108;-76
2023/11/13 03:51:45;;;;;;;21.40;9.97;;;;;;;;;;4995141;28;20026;-74
2023/11/13 03:54:10;;;;;;;20.00;10.17;;;;;;;;;;4996329;28;20041;-75
2023/11/13 03:56:38;;;;;;;22.17;9.93;;;;;;;;;;4995009;28;20034;-76
2023/11/13 03:59:04;;;;;;;20.10;9.67;;;;;;;;;;4997122;28;20027;-75
2023/11/13 04:01:30;;;;;;;19.43;9.87;;;;;;;;;;5000726;28;20489;-76
2023/11/13 04:03:55;;;;;;;19.93;9.67;;;;;;;;;;5007007;28;20371;-75
2023/11/13 04:06:23;;;;;;;19.70;10.20;;;;;;;;;;5008036;28;20314;-75
2023/11/13 04:08:48;;;;;;;14.43;9.23;;;;;;;;;;4997204;28;20125;-75
2023/11/13 04:11:16;;;;;;;16.60;9.07;;;;;;;;;;4994957;28;20097;-75
2023/11/13 04:13:44;;;;;;;19.87;9.97;;;;;;;;;;5010146;28;20030;-75
2023/11/13 04:16:12;;;;;;;19.90;10.43;;;;;;;;;;5010313;28;20050;-75
2023/11/13 04:18:37;;;;;;;16.67;9.77;;;;;;;;;;4995412;28;20019;-77
2023/11/13 04:21:04;;;;;;;17.13;8.80;;;;;;;;;;4994076;28;20499;-74
2023/11/13 04:23:30;;;;;;;15.93;9.80;;;;;;;;;;4995380;28;20026;-74
2023/11/13 04:25:56;;;;;;;20.50;9.20;;;;;;;;;;4993979;28;20042;-74
2023/11/13 04:28:22;;;;;;;20.73;9.53;;;;;;;;;;4993719;28;20483;-76
2023/11/13 04:30:48;;;;;;;20.17;9.93;;;;;;;;;;4994185;28;20050;-74
2023/11/13 04:33:14;;;;;;;17.20;9.83;;;;;;;;;;4996022;28;20030;-75
2023/11/13 04:35:40;;;;;;;18.30;10.63;;;;;;;;;;4994606;28;20089;-76
2023/11/13 04:38:06;;;;;;;20.10;9.83;;;;;;;;;;4994969;28;20026;-74
2023/11/13 04:40:32;;;;;;;20.47;9.47;;;;;;;;;;4995575;28;20062;-75
2023/11/13 04:42:59;;;;;;;15.60;9.33;;;;;;;;;;5000494;28;20022;-76
2023/11/13 04:45:25;;;;;;;21.23;10.17;;;;;;;;;;5001755;28;20030;-74
2023/11/13 04:47:51;;;;;;;18.67;9.97;;;;;;;;;;5015634;28;20038;-75
2023/11/13 04:50:17;;;;;;;16.57;9.20;;;;;;;;;;5000661;28;20066;-77
2023/11/13 04:52:43;;;;;;;19.23;9.47;;;;;;;;;;4998466;28;20570;-75
2023/11/13 04:55:10;;;;;;;18.13;9.47;;;;;;;;;;4994867;28;20040;-75
2023/11/13 04:57:36;;;;;;;23.93;10.20;;;;;;;;;;4996082;28;20418;-75
2023/11/13 05:00:05;;;;;;;18.40;8.97;;;;;;;;;;4995567;28;20053;-74
2023/11/13 05:02:30;;;;;;;17.10;9.33;;;;;;;;;;5016199;28;20480;-74
2023/11/13 05:04:56;;;;;;;17.87;9.20;;;;;;;;;;5014164;28;20073;-74
2023/11/13 05:07:22;;;;;;;18.13;10.10;;;;;;;;;;5014774;28;20501;-76
2023/11/13 05:09:48;;;;;;;21.53;9.57;;;;;;;;;;5017358;28;20025;-74
2023/11/13 05:12:15;;;;;;;15.60;9.73;;;;;;;;;;5014783;28;20079;-74
2023/11/13 05:14:43;;;;;;;19.43;9.03;;;;;;;;;;5011536;28;20060;-74
2023/11/13 05:17:09;;;;;;;16.57;8.80;;;;;;;;;;5013214;28;20582;-76
2023/11/13 05:19:35;;;;;;;16.67;9.10;;;;;;;;;;5013045;28;20036;-76
2023/11/13 05:22:01;;;;;;;18.00;9.33;;;;;;;;;;5011861;28;20026;-75
2023/11/13 05:24:27;;;;;;;17.23;9.13;;;;;;;;;;5013182;28;20037;-75
2023/11/13 05:26:55;;;;;;;20.80;10.47;;;;;;;;;;5012052;28;20030;-75
2023/11/13 05:29:23;;;;;;;18.90;9.20;;;;;;;;;;5011683;28;20739;-76
2023/11/13 05:31:49;;;;;;;16.77;9.90;;;;;;;;;;5012087;28;20026;-76
2023/11/13 05:34:15;;;;;;;16.67;9.17;;;;;;;;;;5007822;28;20036;-73
2023/11/13 05:36:40;;;;;;;17.40;9.43;;;;;;;;;;5009844;28;20117;-71
2023/11/13 05:39:07;;;;;;;15.90;9.47;;;;;;;;;;4996233;28;20045;-73
2023/11/13 05:41:36;;;;;;;24.13;9.40;;;;;;;;;;5004154;28;20026;-73
2023/11/13 05:44:02;;;;;;;19.27;9.13;;;;;;;;;;5011170;28;20034;-75
2023/11/13 05:46:28;;;;;;;20.47;11.40;;;;;;;;;;5007508;28;20187;-74
2023/11/13 05:48:54;;;;;;;18.53;9.77;;;;;;;;;;5008818;28;20029;-73
2023/11/13 05:51:20;;;;;;;18.93;9.73;;;;;;;;;;5008520;28;20037;-73
2023/11/13 05:53:47;;;;;;;17.77;9.03;;;;;;;;;;5007850;28;20026;-75
2023/11/13 05:56:13;;;;;;;18.23;9.13;;;;;;;;;;5011434;28;20040;-75
2023/11/13 05:58:39;;;;;;;13.77;8.23;;;;;;;;;;4999515;28;20105;-73
2023/11/13 06:01:05;;;;;;;14.43;7.87;;;;;;;;;;5017580;28;20025;-73
2023/11/13 06:03:31;;;;;;;17.77;8.20;;;;;;;;;;5013163;28;20402;-73
2023/11/13 06:05:56;;;;;;;16.37;7.70;;;;;;;;;;5001796;28;20057;-76
2023/11/13 06:08:22;;;;;;;18.00;8.00;;;;;;;;;;5001684;28;20390;-76
2023/11/13 06:10:48;;;;;;;13.43;7.60;;;;;;;;;;5009320;28;20431;-71
2023/11/13 06:13:14;;;;;;;17.03;8.67;;;;;;;;;;5002389;28;20093;-72
2023/11/13 06:15:40;;;;;;;16.10;8.80;;;;;;;;;;5009042;28;20028;-74
2023/11/13 06:18:07;;;;;;;12.40;7.93;;;;;;;;;;5004125;28;20126;-75
2023/11/13 06:20:34;;;;;;;19.63;9.23;;;;;;;;;;5009489;28;20056;-73
2023/11/13 06:23:00;;;;;;;16.07;7.90;;;;;;;;;;4991342;28;20041;-73
2023/11/13 06:25:26;;;;;;;16.77;9.27;;;;;;;;;;5004492;28;20474;-73
2023/11/13 06:27:53;;;;;;;15.47;7.73;;;;;;;;;;5013804;28;20041;-73
2023/11/13 06:30:20;;;;;;;15.40;8.00;;;;;;;;;;5001341;28;20022;-76
2023/11/13 06:32:48;;;;;;;16.00;8.13;;;;;;;;;;5008394;28;20441;-75
2023/11/13 06:35:15;;;;;;;17.80;9.13;;;;;;;;;;5001233;28;20117;-74
2023/11/13 06:37:41;;;;;;;14.87;8.50;;;;;;;;;;4992459;28;20467;-77
2023/11/13 06:40:07;;;;;;;18.40;10.83;;;;;;;;;;5009183;28;20080;-72
2023/11/13 06:42:33;;;;;;;12.93;7.63;;;;;;;;;;5024112;28;20034;-73
2023/11/13 06:44:59;;;;;;;38.60;10.47;;;;;;;;;;5002419;28;20108;-75
2023/11/13 06:47:25;;;;;;;21.10;7.03;;;;;;;;;;5001853;28;20402;-74
2023/11/13 06:49:50;;;;;;;18.27;8.23;;;;;;;;;;5012882;28;20643;-75
2023/11/13 06:52:16;;;;;;;15.67;7.57;;;;;;;;;;5003255;28;20050;-73
2023/11/13 06:54:43;;;;;;;16.57;7.60;;;;;;;;;;4998315;28;20093;-77
2023/11/13 06:57:12;;;;;;;14.50;7.90;;;;;;;;;;5010658;28;20087;-76
2023/11/13 06:59:40;;;;;;;13.87;7.60;;;;;;;;;;5006149;28;20030;-77
2023/11/13 07:02:06;;;;;;;14.00;7.20;;;;;;;;;;5005102;28;20039;-75
2023/11/13 07:04:31;;;;;;;20.57;8.23;;;;;;;;;;5002259;28;20113;-73
2023/11/13 07:06:57;;;;;;;16.77;8.53;;;;;;;;;;5012128;28;20057;-75
2023/11/13 07:09:25;;;;;;;13.40;7.90;;;;;;;;;;5011000;28;20137;-71
2023/11/13 07:11:50;;;;;;;14.43;8.10;;;;;;;;;;5000980;28;20503;-72
2023/11/13 07:14:16;;;;;;;15.27;8.37;;;;;;;;;;5021781;28;20120;-75
2023/11/13 07:16:45;;;;;;;15.77;7.43;;;;;;;;;;4999095;28;20033;-73
2023/11/13 07:19:13;;;;;;;17.03;8.50;;;;;;;;;;5009395;28;20026;-74
2023/11/13 07:21:41;;;;;;;15.63;7.93;;;;;;;;;;4983180;28;20053;-74
2023/11/13 07:24:09;;;;;;;18.87;8.00;;;;;;;;;;5017378;28;20080;-71
2023/11/13 07:26:35;;;;;;;14.50;8.07;;;;;;;;;;5007781;28;20017;-72
2023/11/13 07:29:00;;;;;;;15.07;7.90;;;;;;;;;;4992794;28;20041;-73
2023/11/13 07:31:26;;;;;;;19.43;8.47;;;;;;;;;;4999266;28;20413;-74
2023/11/13 07:33:54;;;;;;;14.27;7.40;;;;;;;;;;5012514;28;20053;-73
2023/11/13 07:36:20;;;;;;;14.87;7.90;;;;;;;;;;5014180;28;20132;-72
2023/11/13 07:38:46;;;;;;;16.07;8.20;;;;;;;;;;5016830;28;20761;-73
2023/11/13 07:41:12;;;;;;;16.00;8.00;;;;;;;;;;5004668;28;20037;-73
2023/11/13 07:43:45;;;;;;;14.30;7.07;;;;;;;;;;5021824;28;20100;-72
2023/11/13 07:46:12;;;;;;;15.33;9.10;;;;;;;;;;5009124;28;20826;-75
2023/11/13 07:48:38;;;;;;;15.50;7.67;;;;;;;;;;5002761;28;20046;-71
2023/11/13 07:51:05;;;;;;;11.30;6.77;;;;;;;;;;5006525;28;20478;-72
2023/11/13 07:53:38;;;;;;;12.67;7.67;;;;;;;;;;5006839;28;20030;-73
2023/11/13 07:56:05;;;;;;;15.67;7.60;;;;;;;;;;5005461;28;20073;-71
2023/11/13 07:58:31;;;;;;;16.33;8.10;;;;;;;;;;5003606;28;20053;-72
2023/11/13 08:00:58;;;;;;;12.33;6.90;;;;;;;;;;5001633;28;20084;-74
2023/11/13 08:03:25;;;;;;;14.20;7.63;;;;;;;;;;5005787;28;20041;-74
2023/11/13 08:05:51;;;;;;;25.50;12.10;;;;;;;;;;5011312;28;20042;-73
2023/11/13 08:08:16;;;;;;;21.40;8.83;;;;;;;;;;5014894;28;20433;-72
2023/11/13 08:10:48;;;;;;;16.57;7.70;;;;;;;;;;5012895;28;20074;-72
2023/11/13 08:13:21;;;;;;;14.15;6.50;;;;;;;;;;5013068;28;20473;-77
2023/11/13 08:15:50;;;;;;;14.33;7.03;;;;;;;;;;5003196;28;20146;-74
2023/11/13 08:18:39;;;;;;;16.23;8.40;;;;;;;;;;5001428;28;20030;-72
2023/11/13 08:21:10;;;;;;;13.17;6.57;;;;;;;;;;4998656;28;20071;-75
2023/11/13 08:23:35;;;;;;;17.20;8.77;;;;;;;;;;4999305;28;20464;-74
2023/11/13 08:26:03;;;;;;;13.63;6.63;;;;;;;;;;5007265;28;20117;-75
2023/11/13 08:28:31;;;;;;;15.87;6.63;;;;;;;;;;5002657;28;20091;-71
2023/11/13 08:30:58;;;;;;;13.37;6.40;;;;;;;;;;5004468;28;20061;-74
2023/11/13 08:33:47;;;;;;;11.20;6.27;;;;;;;;;;5001529;28;20064;-74
2023/11/13 08:36:20;;;;;;;12.82;6.88;;;;;;;;;;5004209;28;20106;-75
2023/11/13 08:38:47;;;;;;;13.13;6.70;;;;;;;;;;4999115;28;20042;-74
2023/11/13 08:41:24;;;;;;;14.80;6.27;;;;;;;;;;5004726;28;20034;-74
2023/11/13 08:43:50;;;;;;;14.47;6.63;;;;;;;;;;5005434;28;20026;-75
2023/11/13 08:46:16;;;;;;;14.43;6.73;;;;;;;;;;5005902;28;20036;-73
2023/11/13 08:48:42;;;;;;;12.33;6.50;;;;;;;;;;5007158;28;20045;-71
2023/11/13 08:51:08;;;;;;;21.80;10.20;;;;;;;;;;4996791;28;20030;-74
2023/11/13 08:53:42;;;;;;;10.83;6.50;;;;;;;;;;5000986;28;20401;-73
2023/11/13 08:56:21;;;;;;;12.30;6.23;;;;;;;;;;4996956;28;20047;-70
2023/11/13 08:58:58;;;;;;;9.53;6.00;;;;;;;;;;5005938;28;20048;-73
2023/11/13 09:01:26;;;;;;;13.67;6.70;;;;;;;;;;5003170;28;20514;-75
2023/11/13 09:03:59;;;;;;;14.43;7.00;;;;;;;;;;4999024;28;20777;-72
2023/11/13 09:06:27;;;;;;;11.20;7.10;;;;;;;;;;4998682;28;20054;-73
2023/11/13 09:08:59;;;;;;;13.10;6.23;;;;;;;;;;4999887;28;20543;-72
2023/11/13 09:11:28;;;;;;;13.80;6.80;;;;;;;;;;4999492;28;20037;-73
2023/11/13 09:13:56;;;;;;;14.98;7.65;;;;;;;;;;5000566;28;20442;-74
2023/11/13 09:16:23;;;;;;;12.40;6.90;;;;;;;;;;4999272;28;20061;-72
2023/11/13 09:18:52;;;;;;;11.07;7.07;;;;;;;;;;5002953;28;20548;-76
2023/11/13 09:21:19;;;;;;;10.63;6.53;;;;;;;;;;4998595;28;20030;-73
2023/11/13 09:23:45;;;;;;;15.10;7.20;;;;;;;;;;5000851;28;20494;-71
2023/11/13 09:26:11;;;;;;;11.67;6.70;;;;;;;;;;5000151;28;20027;-73
2023/11/13 09:28:37;;;;;;;14.53;7.07;;;;;;;;;;5000297;28;20438;-72
2023/11/13 09:31:04;;;;;;;12.13;7.40;;;;;;;;;;5008052;28;20034;-74
2023/11/13 09:33:34;;;;;;;11.63;7.17;;;;;;;;;;5004105;28;20112;-75
2023/11/13 09:35:59;;;;;;;12.00;7.30;;;;;;;;;;4998687;28;20121;-71
2023/11/13 09:38:26;;;;;;;11.60;6.97;;;;;;;;;;5002441;28;20537;-71
2023/11/13 09:40:59;;;;;;;10.83;6.70;;;;;;;;;;4996654;28;20103;-73
2023/11/13 09:43:34;;;;;;;20.77;8.20;;;;;;;;;;4994999;28;20023;-73
2023/11/13 09:46:03;;;;;;;18.57;7.43;;;;;;;;;;5005423;28;20120;-73
2023/11/13 09:48:30;;;;;;;13.47;8.20;;;;;;;;;;5002004;28;20034;-71
2023/11/13 09:50:57;;;;;;;12.13;7.30;;;;;;;;;;5003682;28;20042;-71
2023/11/13 09:53:29;;;;;;;12.90;6.23;;;;;;;;;;5000245;28;20128;-72
2023/11/13 09:55:55;;;;;;;26.55;13.30;;;;;;;;;;5004136;28;20114;-73
2023/11/13 09:58:22;;;;;;;12.03;6.20;;;;;;;;;;5005954;28;20095;-70
2023/11/13 10:00:51;;;;;;;8.47;6.17;;;;;;;;;;5004269;28;20018;-74
2023/11/13 10:03:23;;;;;;;12.30;6.33;;;;;;;;;;5008983;28;20156;-72
2023/11/13 10:05:50;;;;;;;13.03;5.80;;;;;;;;;;5005051;28;20096;-73
2023/11/13 10:08:17;;;;;;;11.23;5.90;;;;;;;;;;5000553;28;20089;-74
2023/11/13 10:10:42;;;;;;;9.70;6.37;;;;;;;;;;5010670;28;20091;-73
2023/11/13 10:13:14;;;;;;;12.57;6.20;;;;;;;;;;5004837;28;20834;-72
2023/11/13 10:15:42;;;;;;;10.88;5.90;;;;;;;;;;5025099;28;20103;-72
2023/11/13 10:18:12;;;;;;;12.00;5.80;;;;;;;;;;5000658;28;20028;-72
2023/11/13 10:20:49;;;;;;;9.83;5.23;;;;;;;;;;5024382;28;20367;-73
2023/11/13 10:23:15;;;;;;;18.77;7.17;;;;;;;;;;5016202;28;20038;-75
2023/11/13 10:25:45;;;;;;;13.60;6.63;;;;;;;;;;5003120;28;20037;-71
2023/11/13 10:28:14;;;;;;;9.33;5.60;;;;;;;;;;5002424;28;20087;-74
2023/11/13 10:31:01;;;;;;;7.57;5.22;;;;;;;;;;5001922;28;20038;-72
2023/11/13 10:33:31;;;;;;;7.27;5.20;;;;;;;;;;5004252;28;20034;-75
2023/11/13 10:36:07;;;;;;;9.13;5.77;;;;;;;;;;5008917;28;20741;-73
2023/11/13 10:38:47;;;;;;;12.90;5.87;;;;;;;;;;4997767;28;20072;-73
2023/11/13 10:41:21;;;;;;;8.80;5.50;;;;;;;;;;5022907;28;20467;-73
2023/11/13 10:43:47;;;;;;;12.15;5.32;;;;;;;;;;5011123;28;20060;-74
2023/11/13 10:46:30;;;;;;;12.50;6.80;;;;;;;;;;5018952;28;20033;-72
2023/11/13 10:48:57;;;;;;;9.87;6.07;;;;;;;;;;5000444;28;20148;-72
2023/11/13 10:51:25;;;;;;;16.50;5.47;;;;;;;;;;5003969;28;20382;-74
2023/11/13 10:53:54;;;;;;;10.07;5.63;;;;;;;;;;5000124;28;20029;-74
2023/11/13 10:56:24;;;;;;;13.07;5.60;;;;;;;;;;5000318;28;20061;-72
2023/11/13 10:58:51;;;;;;;11.23;6.07;;;;;;;;;;5007190;28;20351;-75
2023/11/13 11:01:24;;;;;;;11.52;5.25;;;;;;;;;;5003111;28;20040;-73
2023/11/13 11:03:52;;;;;;;9.40;5.10;;;;;;;;;;5012901;28;20120;-74
2023/11/13 11:06:22;;;;;;;9.63;5.13;;;;;;;;;;5016167;28;20053;-75
2023/11/13 11:08:50;;;;;;;8.73;5.32;;;;;;;;;;5016662;28;20034;-73
2023/11/13 11:11:22;;;;;;;7.60;5.03;;;;;;;;;;5013693;28;20034;-73
2023/11/13 11:14:06;;;;;;;10.43;5.70;;;;;;;;;;5010687;28;21309;-73
2023/11/13 11:16:42;;;;;;;10.77;4.93;;;;;;;;;;5017114;28;20037;-73
2023/11/13 11:19:25;;;;;;;10.98;5.88;;;;;;;;;;5013423;28;20022;-73
2023/11/13 11:21:59;;;;;;;9.88;6.28;;;;;;;;;;5013608;28;20029;-72
2023/11/13 11:25:11;;;;;;;9.53;6.00;;;;;;;;;;5007212;28;20041;-75
2023/11/13 11:27:41;;;;;;;12.85;5.57;;;;;;;;;;4970863;28;20039;-74
2023/11/13 11:30:36;;;;;;;9.67;4.80;;;;;;;;;;4973285;28;20094;-76
2023/11/13 11:33:11;;;;;;;8.88;5.22;;;;;;;;;;4972891;28;20033;-75
2023/11/13 11:35:41;;;;;;;12.60;6.37;;;;;;;;;;5009241;28;20041;-75
2023/11/13 11:38:27;;;;;;;11.63;5.67;;;;;;;;;;5028683;28;20041;-74
2023/11/13 11:40:53;;;;;;;11.50;6.50;;;;;;;;;;5012978;28;20038;-76
2023/11/13 11:43:41;;;;;;;8.17;5.27;;;;;;;;;;5012995;28;20025;-71
2023/11/13 11:46:06;;;;;;;8.23;4.87;;;;;;;;;;5007364;28;20026;-76
2023/11/13 11:49:27;;;;;;;8.05;6.07;;;;;;;;;;5007334;28;20038;-74
2023/11/13 11:52:08;;;;;;;11.93;6.73;;;;;;;;;;5014207;28;20033;-71
2023/11/13 11:54:38;;;;;;;9.30;5.47;;;;;;;;;;5001201;28;20549;-72
2023/11/13 11:57:13;;;;;;;8.57;5.22;;;;;;;;;;5003321;28;20029;-72
2023/11/13 11:59:42;;;;;;;10.02;5.60;;;;;;;;;;5005410;28;20018;-73
2023/11/13 12:02:08;;;;;;;10.40;5.75;;;;;;;;;;5002048;28;20034;-75
2023/11/13 12:04:34;;;;;;;10.20;5.83;;;;;;;;;;5010204;28;20036;-71
2023/11/13 12:07:02;;;;;;;10.17;6.60;;;;;;;;;;5006369;28;20037;-74
2023/11/13 12:09:31;;;;;;;11.80;6.93;;;;;;;;;;5012649;28;20124;-75
2023/11/13 12:11:59;;;;;;;10.37;6.70;;;;;;;;;;5022754;28;20093;-73
2023/11/13 12:14:28;;;;;;;12.93;7.20;;;;;;;;;;5008027;28;20042;-77
2023/11/13 12:16:54;;;;;;;9.27;6.27;;;;;;;;;;5021401;28;20125;-73
2023/11/13 12:19:23;;;;;;;8.63;5.73;;;;;;;;;;5013963;28;20116;-74
2023/11/13 12:21:49;;;;;;;9.67;6.20;;;;;;;;;;5010982;28;20022;-73
2023/11/13 12:24:17;;;;;;;8.47;6.23;;;;;;;;;;5012842;28;20056;-73
2023/11/13 12:26:45;;;;;;;7.70;6.03;;;;;;;;;;5006644;28;21232;-76
2023/11/13 12:29:19;;;;;;;20.73;8.90;;;;;;;;;;5001728;28;20083;-76
2023/11/13 12:31:53;;;;;;;9.13;6.50;;;;;;;;;;4998515;28;20483;-73
2023/11/13 12:34:19;;;;;;;13.67;6.50;;;;;;;;;;4997947;28;20098;-74
2023/11/13 12:36:49;;;;;;;11.40;6.43;;;;;;;;;;5012275;28;20059;-73
2023/11/13 12:39:19;;;;;;;9.25;6.28;;;;;;;;;;5011916;28;20791;-76
2023/11/13 12:41:47;;;;;;;12.23;7.10;;;;;;;;;;5002530;28;20037;-75
2023/11/13 12:44:16;;;;;;;11.20;6.43;;;;;;;;;;5007874;28;20545;-75
2023/11/13 12:46:48;;;;;;;10.97;6.37;;;;;;;;;;5002361;28;20038;-74
2023/11/13 12:49:18;;;;;;;12.73;6.70;;;;;;;;;;5007548;28;20356;-74
2023/11/13 12:51:49;;;;;;;13.40;6.27;;;;;;;;;;5002898;28;20056;-74
2023/11/13 12:54:16;;;;;;;12.93;6.67;;;;;;;;;;4999885;28;20034;-76
2023/11/13 12:56:47;;;;;;;10.63;7.32;;;;;;;;;;5006264;28;20065;-75
2023/11/13 12:59:17;;;;;;;12.05;7.00;;;;;;;;;;5024095;28;20038;-73
2023/11/13 13:01:46;;;;;;;11.20;6.87;;;;;;;;;;5005355;28;20026;-72
2023/11/13 13:04:12;;;;;;;12.05;7.75;;;;;;;;;;4999593;28;20029;-72
2023/11/13 13:06:39;;;;;;;12.03;8.43;;;;;;;;;;4999965;28;20108;-73
2023/11/13 13:09:06;;;;;;;11.30;7.30;;;;;;;;;;5002019;28;20053;-76
2023/11/13 13:11:38;;;;;;;11.77;7.43;;;;;;;;;;5003821;28;20032;-73
2023/11/13 13:14:12;;;;;;;10.20;6.93;;;;;;;;;;4987652;28;20123;-73
2023/11/13 13:16:38;;;;;;;9.40;6.30;;;;;;;;;;4987078;28;20034;-72
2023/11/13 13:19:05;;;;;;;11.13;7.03;;;;;;;;;;5000882;28;20026;-72
2023/11/13 13:21:31;;;;;;;10.67;6.63;;;;;;;;;;5002743;28;20103;-73
2023/11/13 13:23:58;;;;;;;9.20;6.70;;;;;;;;;;5008528;28;20034;-72
2023/11/13 13:26:24;;;;;;;12.23;7.37;;;;;;;;;;5008999;28;20026;-73
2023/11/13 13:28:53;;;;;;;10.60;7.67;;;;;;;;;;5001999;28;20025;-73
2023/11/13 13:31:24;;;;;;;18.73;9.73;;;;;;;;;;5010283;28;20119;-70
2023/11/13 13:33:51;;;;;;;17.48;8.90;;;;;;;;;;5000286;28;20640;-73
2023/11/13 13:36:19;;;;;;;18.63;10.33;;;;;;;;;;5001263;28;20048;-74
2023/11/13 13:38:46;;;;;;;12.33;8.07;;;;;;;;;;5012915;28;20045;-73
2023/11/13 13:41:16;;;;;;;13.47;7.67;;;;;;;;;;5003069;28;20113;-73
2023/11/13 13:43:44;;;;;;;10.23;6.83;;;;;;;;;;5007381;28;20033;-71
2023/11/13 13:46:10;;;;;;;11.77;6.67;;;;;;;;;;5003050;28;20032;-73
2023/11/13 13:48:58;;;;;;;13.17;7.50;;;;;;;;;;5005894;28;20030;-74
2023/11/13 13:51:25;;;;;;;10.47;6.87;;;;;;;;;;5002293;28;20568;-75
2023/11/13 13:53:51;;;;;;;12.60;7.27;;;;;;;;;;4999734;28;20030;-75
2023/11/13 13:56:21;;;;;;;14.70;7.40;;;;;;;;;;5000582;28;20102;-74
2023/11/13 13:58:48;;;;;;;10.77;6.30;;;;;;;;;;5002932;28;20458;-74
2023/11/13 14:01:19;;;;;;;12.83;8.57;;;;;;;;;;5001877;28;20037;-74
2023/11/13 14:03:44;;;;;;;12.77;7.07;;;;;;;;;;5025336;28;20033;-71
2023/11/13 14:06:15;;;;;;;9.53;6.30;;;;;;;;;;4996434;28;20054;-74
2023/11/13 14:08:41;;;;;;;9.30;6.47;;;;;;;;;;5019048;28;20034;-75
2023/11/13 14:11:07;;;;;;;9.40;6.03;;;;;;;;;;5010733;28;20111;-74
2023/11/13 14:13:34;;;;;;;9.43;6.57;;;;;;;;;;5003611;28;20044;-73
2023/11/13 14:16:00;;;;;;;9.37;5.80;;;;;;;;;;5022256;28;20033;-73
2023/11/13 14:18:31;;;;;;;10.10;5.83;;;;;;;;;;5006520;28;20041;-76
2023/11/13 14:20:57;;;;;;;11.15;6.53;;;;;;;;;;5005723;28;20041;-75
2023/11/13 14:23:26;;;;;;;11.37;6.27;;;;;;;;;;5000005;28;20095;-74
2023/11/13 14:25:54;;;;;;;9.83;6.37;;;;;;;;;;5001201;28;20113;-74
2023/11/13 14:28:21;;;;;;;9.90;6.30;;;;;;;;;;5007505;28;20023;-75
2023/11/13 14:30:48;;;;;;;12.52;8.50;;;;;;;;;;5002979;28;20034;-74
2023/11/13 14:33:16;;;;;;;10.43;7.78;;;;;;;;;;4998746;28;20029;-73
2023/11/13 14:35:43;;;;;;;10.23;6.15;;;;;;;;;;5001982;28;20225;-73